Flight Track Log - Related Links

Times and Time Zones

All times are in EDT time to prevent confusion due to time zone crossing. See the N362MA flight status page for this flight to view local times or setup timezone preferences in your user account.

Time Position Orientation Groundspeed Altitude Reporting Facility
EDT Latitude Longitude Course Direction KTS MPH feet Rate Location/Type
Tue 09:55:45 PM 33.6467 -101.8322 169° South 104 120 3,600  Level Fort Worth Center
Tue 09:56:10 PM 33.6322 -101.8289 169° South 108 124 3,900 684 Climbing Fort Worth Center
Tue 09:57:04 PM 33.6228 -101.8561 247° West 142 163 4,500 626 Climbing Fort Worth Center
Tue 09:58:05 PM 33.6569 -101.8903 320° Northwest 165 190 5,100 595 Climbing Fort Worth Center
Tue 09:59:05 PM 33.6958 -101.9169 330° Northwest 158 182 5,700 595 Climbing Fort Worth Center
Tue 10:00:06 PM 33.7322 -101.9439 328° Northwest 157 181 6,300 541 Climbing Fort Worth Center
Tue 10:01:07 PM 33.7625 -101.9756 319° Northwest 145 167 6,800 545 Climbing Fort Worth Center
Tue 10:02:07 PM 33.7906 -102.0094 315° West 140 161 7,400 545 Climbing Fort Worth Center
Tue 10:03:08 PM 33.8183 -102.0433 315° West 144 166 7,900 595 Climbing Fort Worth Center
Tue 10:04:08 PM 33.8442 -102.0822 309° West 138 159 8,600 595 Climbing Fort Worth Center
Tue 10:05:09 PM 33.8719 -102.1164 314° West 140 161 9,100 508 Climbing Fort Worth Center
Tue 10:06:18 PM 33.9022 -102.1481 319° Northwest 149 171 9,700 558 Climbing Fort Worth Center
Tue 10:07:18 PM 33.9281 -102.1769 317° Northwest 138 159 10,300 600 Climbing Fort Worth Center
Tue 10:08:18 PM 33.9583 -102.2086 319° Northwest 138 159 10,900 550 Climbing Fort Worth Center
Tue 10:09:18 PM 33.9822 -102.2375 315° West 133 153 11,400 550 Climbing Fort Worth Center
Tue 10:10:18 PM 34.0122 -102.2692 319° Northwest 133 153 12,000 567 Climbing Fort Worth Center
Tue 10:12:18 PM 34.0642 -102.3297 316° Northwest 133 153 13,100 533 Climbing Fort Worth Center
Tue 10:13:18 PM 34.0881 -102.3586 315° West 133 153 13,600 450 Climbing Fort Worth Center
Tue 10:14:18 PM 34.1161 -102.3878 319° Northwest 127 146 14,000 250 Climbing Fort Worth Center
Tue 10:15:18 PM 34.1361 -102.4092 318° Northwest 120 138 14,100 50 Climbing Fort Worth Center
Tue 10:16:18 PM 34.1658 -102.4458 314° West 127 146 14,100 296 Level Fort Worth Center
Tue 10:18:00 PM 34.2190 -102.5085 316° Northwest  Level FlightAware Approximate
Tue 10:19:01 PM 34.2506 -102.5394 316° Northwest 153 176 15,200  Level Albuquerque Center
Tue 10:20:02 PM 34.2819 -102.5761 316° Northwest 154 177 15,700 439 Climbing Albuquerque Center
Tue 10:21:04 PM 34.3100 -102.6128 313° West 150 173 16,100 195 Climbing Albuquerque Center
Tue 10:22:05 PM 34.3406 -102.6539 312° West 158 182 16,100 -49 Level Albuquerque Center
Tue 10:23:07 PM 34.3736 -102.6953 314° West 167 192 16,000 -63 Descending Albuquerque Center
Tue 10:23:40 PM 34.3944 -102.7256 310° West 165 190 16,000  Level Albuquerque Center
Tue 10:24:08 PM 34.4106 -102.7439 317° Northwest 165 190 16,000  Level Albuquerque Center
Tue 10:24:41 PM 34.4275 -102.7647 315° West 160 184 16,000  Level Albuquerque Center
Tue 10:25:09 PM 34.4436 -102.7792 324° Northwest 160 184 16,000  Level Albuquerque Center
Tue 10:25:41 PM 34.4583 -102.8017 308° West 163 188 16,000  Level Albuquerque Center
Tue 10:26:11 PM 34.4747 -102.8183 320° Northwest 161 185 16,000  Level Albuquerque Center
Tue 10:26:42 PM 34.4914 -102.8408 312° West 161 185 16,000  Level Albuquerque Center
Tue 10:27:12 PM 34.5036 -102.8547 317° Northwest 160 184 16,000  Level Albuquerque Center
Tue 10:27:43 PM 34.5083 -102.8858 280° West 157 181 16,000  Level Albuquerque Center
Tue 10:28:13 PM 34.5167 -102.9053 297° West 156 180 16,000  Level Albuquerque Center
Tue 10:28:43 PM 34.5261 -102.9361 290° West 154 177 16,000  Level Albuquerque Center
Tue 10:29:15 PM 34.5328 -102.9536 295° West 153 176 16,000  Level Albuquerque Center
Tue 10:29:44 PM 34.5389 -102.9819 285° West 154 177 16,000  Level Albuquerque Center
Tue 10:30:16 PM 34.5494 -103.0119 293° West 153 176 16,000  Level Albuquerque Center
Tue 10:30:44 PM 34.5547 -103.0350 286° West 153 176 16,000  Level Albuquerque Center
Tue 10:31:17 PM 34.5628 -103.0606 291° West 153 176 16,000  Level Albuquerque Center
Tue 10:31:45 PM 34.5681 -103.0833 286° West 153 176 16,000  Level Albuquerque Center
Tue 10:32:19 PM 34.5775 -103.1094 294° West 152 175 16,000  Level Albuquerque Center
Tue 10:32:46 PM 34.5811 -103.1319 281° West 154 177 16,000 98 Level Albuquerque Center
Tue 10:33:20 PM 34.5911 -103.1594 294° West 153 176 16,100  Climbing Albuquerque Center
Tue 10:33:46 PM 34.5967 -103.1825 286° West 153 176 16,000 -98 Descending Albuquerque Center
Tue 10:34:21 PM 34.6058 -103.2081 294° West 153 176 16,000  Level Albuquerque Center
Tue 10:34:47 PM 34.6114 -103.2281 289° West 152 175 16,000  Level Albuquerque Center
Tue 10:35:22 PM 34.6200 -103.2567 290° West 152 175 16,000  Level Albuquerque Center
Tue 10:35:47 PM 34.6250 -103.2792 285° West 151 174 16,000  Level Albuquerque Center
Tue 10:36:24 PM 34.6347 -103.3050 295° West 152 175 16,000  Level Albuquerque Center
Tue 10:36:48 PM 34.6400 -103.3272 286° West 150 173 16,000  Level Albuquerque Center
Tue 10:37:25 PM 34.6494 -103.3522 295° West 150 173 16,000  Level Albuquerque Center
Tue 10:37:43 PM 34.6542 -103.3681 290° West 148 170 16,000  Level Albuquerque Center
Tue 10:38:26 PM 34.6636 -103.3983 291° West 147 169 16,000  Level Albuquerque Center
Tue 10:38:49 PM 34.6700 -103.4211 289° West 148 170 16,000  Level Albuquerque Center
Tue 10:39:27 PM 34.6789 -103.4456 294° West 148 170 16,000  Level Albuquerque Center
Tue 10:39:56 PM 34.6856 -103.4742 286° West 148 170 16,000  Level Albuquerque Center
Tue 10:40:28 PM 34.6925 -103.4925 295° West 147 169 16,000  Level Albuquerque Center
Tue 10:40:56 PM 34.6983 -103.5203 284° West 148 170 16,000  Level Albuquerque Center
Tue 10:41:30 PM 34.7042 -103.5417 288° West 149 171 16,000  Level Albuquerque Center
Tue 10:42:31 PM 34.7164 -103.5914 287° West 151 174 16,000 49 Level Albuquerque Center
Tue 10:43:32 PM 34.7286 -103.6381 288° West 146 168 16,100  Climbing Albuquerque Center
Tue 10:44:33 PM 34.7419 -103.6856 289° West 146 168 16,000 -49 Descending Albuquerque Center
Tue 10:45:34 PM 34.7561 -103.7317 291° West 144 166 16,000 49 Level Albuquerque Center
Tue 10:46:36 PM 34.7697 -103.7883 286° West 147 169 16,100 49 Climbing Albuquerque Center
Tue 10:47:37 PM 34.7811 -103.8372 286° West 149 171 16,100 -49 Level Albuquerque Center
Tue 10:48:38 PM 34.7925 -103.8875 285° West 151 174 16,000 -49 Descending Albuquerque Center
Tue 10:49:39 PM 34.8053 -103.9372 287° West 152 175 16,000  Level Albuquerque Center
Tue 10:50:40 PM 34.8192 -103.9850 290° West 150 173 16,000  Level Albuquerque Center
Tue 10:51:42 PM 34.8331 -104.0319 290° West 147 169 16,000  Level Albuquerque Center
Tue 10:53:00 PM 34.8501 -104.0952 288° West  Level FlightAware Approximate
Tue 10:53:44 PM 34.8608 -104.1258 288° West 146 168 16,000  Level Albuquerque Center
Tue 10:54:45 PM 34.8761 -104.1731 292° West 147 169 16,000  Level Albuquerque Center
Tue 10:55:46 PM 34.8908 -104.2206 291° West 148 170 16,000 49 Level Albuquerque Center
Tue 10:56:48 PM 34.9036 -104.2694 288° West 149 171 16,100 49 Climbing Albuquerque Center
Tue 10:57:49 PM 34.9161 -104.3178 288° West 149 171 16,100  Level Albuquerque Center
Tue 10:58:50 PM 34.9278 -104.3661 286° West 147 169 16,100  Level Albuquerque Center
Tue 10:59:51 PM 34.9417 -104.4122 290° West 145 167 16,100  Level Albuquerque Center
Tue 11:00:52 PM 34.9569 -104.4578 292° West 144 166 16,100 -49 Level Albuquerque Center
Tue 11:01:54 PM 34.9725 -104.5047 292° West 145 167 16,000  Descending Albuquerque Center
Tue 11:02:55 PM 34.9858 -104.5525 289° West 147 169 16,100  Climbing Albuquerque Center
Tue 11:03:56 PM 34.9978 -104.5992 287° West 144 166 16,000 -49 Descending Albuquerque Center
Tue 11:04:57 PM 35.0108 -104.6456 289° West 144 166 16,000  Level Albuquerque Center
Tue 11:05:59 PM 35.0239 -104.6917 289° West 143 165 16,000  Level Albuquerque Center
Tue 11:07:00 PM 35.0356 -104.7375 287° West 141 162 16,000  Level Albuquerque Center
Tue 11:08:01 PM 35.0478 -104.7842 288° West 142 163 16,000  Level Albuquerque Center
Tue 11:09:03 PM 35.0619 -104.8386 288° West 143 165 16,000  Level Albuquerque Center
Tue 11:10:04 PM 35.0739 -104.8842 288° West 141 162 16,000  Level Albuquerque Center
Tue 11:11:05 PM 35.0861 -104.9308 288° West 143 165 16,000  Level Albuquerque Center
Tue 11:12:06 PM 35.0997 -104.9767 290° West 142 163 16,000  Level Albuquerque Center
Tue 11:13:08 PM 35.1106 -105.0244 286° West 143 165 16,000  Level Albuquerque Center
Tue 11:14:09 PM 35.1242 -105.0725 289° West 146 168 16,000  Level Albuquerque Center
Tue 11:15:10 PM 35.1392 -105.1206 291° West 148 170 16,000  Level Albuquerque Center
Tue 11:16:12 PM 35.1553 -105.1669 293° West 148 170 16,000  Level Albuquerque Center
Tue 11:17:13 PM 35.1703 -105.2150 291° West 148 170 16,000  Level Albuquerque Center
Tue 11:18:14 PM 35.1836 -105.2644 288° West 151 174 16,000  Level Albuquerque Center
Tue 11:19:16 PM 35.1997 -105.3111 293° West 149 171 16,000  Level Albuquerque Center
Tue 11:20:17 PM 35.2164 -105.3575 294° West 148 170 16,000  Level Albuquerque Center
Tue 11:21:18 PM 35.2317 -105.4067 291° West 151 174 16,000  Level Albuquerque Center
Tue 11:22:20 PM 35.2489 -105.4553 293° West 152 175 16,000  Level Albuquerque Center
Tue 11:24:22 PM 35.2828 -105.5608 291° West 152 175 16,000  Level Albuquerque Center
Tue 11:25:24 PM 35.2997 -105.6114 292° West 157 181 16,000  Level Albuquerque Center
Tue 11:26:25 PM 35.3164 -105.6611 292° West 156 180 16,000  Level Albuquerque Center
Tue 11:27:26 PM 35.3322 -105.7108 291° West 156 180 16,000  Level Albuquerque Center
Tue 11:28:28 PM 35.3481 -105.7603 291° West 155 178 16,000  Level Albuquerque Center
Tue 11:29:29 PM 35.3639 -105.8106 291° West 156 180 16,000  Level Albuquerque Center
Tue 11:30:30 PM 35.3803 -105.8594 292° West 154 177 16,000  Level Albuquerque Center
Tue 11:31:32 PM 35.3972 -105.9083 293° West 154 177 16,000  Level Albuquerque Center
Tue 11:32:33 PM 35.4125 -105.9558 292° West 156 180 16,000  Level Albuquerque Center
Tue 11:33:35 PM 35.4300 -106.0064 293° West 159 183 16,000  Level Albuquerque Center
Tue 11:34:36 PM 35.4447 -106.0561 290° West 157 181 16,000  Level Albuquerque Center
Tue 11:35:37 PM 35.4597 -106.1067 290° West 158 182 16,000  Level Albuquerque Center
Tue 11:36:38 PM 35.4789 -106.1683 291° West 160 184 16,000  Level Albuquerque Center
Tue 11:37:40 PM 35.4967 -106.2208 293° West 168 193 16,000  Level Albuquerque Center
Tue 11:38:41 PM 35.5133 -106.2708 292° West 163 188 16,000  Level Albuquerque Center
Tue 11:39:42 PM 35.5297 -106.3228 291° West 163 188 16,000  Level Albuquerque Center
Tue 11:40:44 PM 35.5475 -106.3747 293° West 165 190 16,000  Level Albuquerque Center
Tue 11:41:45 PM 35.5669 -106.4258 295° West 165 190 16,000  Level Albuquerque Center
Tue 11:42:46 PM 35.5861 -106.4775 295° West 166 191 16,000  Level Albuquerque Center
Tue 11:43:47 PM 35.6039 -106.5272 294° West 162 186 16,000  Level Albuquerque Center
Tue 11:44:49 PM 35.6194 -106.5772 291° West 158 182 16,000  Level Albuquerque Center
Tue 11:45:50 PM 35.6361 -106.6378 289° West 156 180 16,000  Level Albuquerque Center
Tue 11:46:51 PM 35.6508 -106.6869 290° West 155 178 16,000  Level Albuquerque Center
Tue 11:47:52 PM 35.6636 -106.7386 287° West 157 181 16,000  Level Albuquerque Center
Tue 11:48:53 PM 35.6750 -106.7922 285° West 161 185 16,000  Level Albuquerque Center
Tue 11:51:00 PM 35.7006 -106.8786 290° West  Level FlightAware Approximate
Tue 11:54:00 PM 35.7767 -107.0192 292° West 162 186 16,000  Level Albuquerque Center
Tue 11:55:01 PM 35.8133 -107.0664 314° West 160 184 16,000  Level Albuquerque Center
Tue 11:56:02 PM 35.8461 -107.1053 316° Northwest 162 186 16,000  Level Albuquerque Center
Tue 11:57:03 PM 35.8772 -107.1447 314° West 161 185 16,000  Level Albuquerque Center
Tue 11:58:00 PM 35.8016 -107.2214 292° West  Level FlightAware Approximate
Tue 11:58:04 PM 35.9081 -107.1817 316° Northwest 160 184 16,000  Level Albuquerque Center
Tue 11:59:00 PM 35.8177 -107.2696 292° West  Level FlightAware Approximate
Tue 11:59:05 PM 35.9442 -107.2247 316° Northwest 161 185 16,000  Level Albuquerque Center
Wed 12:00:00 AM 35.8338 -107.3178 292° West  Level FlightAware Approximate
Wed 12:00:06 AM 35.9750 -107.2617 316° Northwest 161 185 16,000  Level Albuquerque Center
Wed 12:01:08 AM 36.0039 -107.2994 313° West 160 184 16,000  Level Albuquerque Center
Wed 12:02:09 AM 36.0381 -107.3433 314° West 159 183 16,000  Level Albuquerque Center
Wed 12:03:10 AM 36.0689 -107.3808 315° West 161 185 16,000  Level Albuquerque Center
Wed 12:04:11 AM 36.0992 -107.4192 314° West 162 186 16,000  Level Albuquerque Center
Wed 12:05:12 AM 36.1375 -107.4625 318° Northwest 166 191 16,000  Level Albuquerque Center
Wed 12:06:13 AM 36.1675 -107.4986 316° Northwest 161 185 16,000  Level Albuquerque Center
Wed 12:07:14 AM 36.2044 -107.5414 317° Northwest 164 189 16,000 -49 Level Albuquerque Center
Wed 12:08:15 AM 36.2350 -107.5772 317° Northwest 161 185 15,900 -246 Descending Albuquerque Center
Wed 12:09:16 AM 36.2647 -107.6186 312° West 166 191 15,500 -393 Descending Albuquerque Center
Wed 12:10:17 AM 36.3039 -107.6667 315° West 175 201 15,100 -393 Descending Albuquerque Center
Wed 12:11:18 AM 36.3353 -107.7081 313° West 174 200 14,700 -393 Descending Albuquerque Center
Wed 12:12:19 AM 36.3681 -107.7492 315° West 174 200 14,300 -393 Descending Albuquerque Center
Wed 12:13:20 AM 36.4042 -107.7944 315° West 168 193 13,900 -492 Descending Albuquerque Center
Wed 12:14:21 AM 36.4367 -107.8311 318° Northwest 166 191 13,300 -639 Descending Albuquerque Center
Wed 12:15:22 AM 36.4725 -107.8733 317° Northwest 161 185 12,600 -689 Descending Albuquerque Center

Login

Don't have an account? Register now (free) for customized features, flight alerts, and more!